Two Harbors — WDH7890 — position and weather

sailwx.info

Track history (hours):
 
Tides and Currents Weather Stations Pressure Air Temp Water Temp Dewpoint Dewpoint Depression Visibility Wind Speed Wind Dir Waves Ship Positions

Two Harbors

Owner: Catalina Classic Cruises, San Diego, CA. More information available from US FCC via Universal Licensing System and Coast Guard Vessel Documentation Center.

Last reported at 2018-Jun-18 13:34 UTC. Time now 2018-Jun-19 16:25 UTC.
Position N 33°32' W 118°15'.

Length 24 m; draft 2.1 m.

Type: Ship. MMSI: 367652650.

Date/timePositionNaut miles runAvg speedWind from/ knotsBaromVisibWave heightAir tempDewpointWater temp
2018-Jun-18 13:34N 33°32' W 118°15'113.3
2018-Jun-18 13:30N 33°33' W 118°15'713.4
2018-Jun-18 13:00N 33°39' W 118°13'612.3
2018-Jun-18 12:29N 33°45' W 118°11'  
2018-Jun-13 18:22N 33°46' W 118°12'1 1.5
2018-Jun-13 18:00N 33°45' W 118°12'0 0.0
2018-Jun-13 17:30N 33°45' W 118°12'1 1.0
2018-Jun-13 17:00N 33°46' W 118°12'0 0.0
2018-Jun-13 01:33N 33°46' W 118°12'0 1.2
2018-Jun-13 01:31N 33°46' W 118°12'510.4
2018-Jun-13 01:00N 33°40' W 118°11'2112.3
2018-Jun-12 23:19N 33°21' W 118°19'0 0.8
2018-Jun-12 23:00N 33°21' W 118°19'0 0.2
2018-Jun-12 22:16N 33°21' W 118°19'0 1.1
2018-Jun-12 21:58N 33°21' W 118°19'0 0.7
2018-Jun-12 21:27N 33°21' W 118°19'0 0.7
2018-Jun-12 21:00N 33°21' W 118°19'0 0.0
2018-Jun-12 13:03N 33°21' W 118°19'0 0.0
2018-Jun-12 13:00N 33°21' W 118°19'0 0.0
2018-Jun-12 11:35N 33°21' W 118°19'0 0.0
2018-Jun-12 11:30N 33°21' W 118°19'0 0.0
2018-Jun-12 11:00N 33°21' W 118°19'0 0.0
2018-Jun-12 10:14N 33°21' W 118°19'0 0.0
2018-Jun-12 09:51N 33°21' W 118°19'0 0.0
2018-Jun-12 09:29N 33°21' W 118°19'0 0.0
2018-Jun-12 08:57N 33°21' W 118°19'0 0.0
2018-Jun-12 08:18N 33°21' W 118°19'0 0.0
2018-Jun-12 06:39N 33°21' W 118°19'0 0.0
2018-Jun-12 06:28N 33°21' W 118°19'0 0.0
2018-Jun-12 05:59N 33°21' W 118°19'0 0.0
2018-Jun-12 05:29N 33°21' W 118°19'0 0.0
2018-Jun-12 05:00N 33°21' W 118°19'0 0.0
2018-Jun-12 04:31N 33°21' W 118°19'0 0.0
2018-Jun-12 04:00N 33°21' W 118°19'0 0.0
2018-Jun-12 03:30N 33°21' W 118°19'0 0.0
2018-Jun-12 02:59N 33°21' W 118°19'0 0.0
2018-Jun-12 02:30N 33°21' W 118°19'0 0.0
2018-Jun-12 02:00N 33°21' W 118°19'0 0.0
2018-Jun-12 01:30N 33°21' W 118°19'0 0.0
2018-Jun-12 01:00N 33°21' W 118°19'0 0.0
2018-Jun-12 00:30N 33°21' W 118°19'0 0.0
2018-Jun-11 23:59N 33°21' W 118°19'0 0.0
2018-Jun-11 23:31N 33°21' W 118°19'0 0.6
2018-Jun-11 22:54N 33°21' W 118°19'0 1.0
2018-Jun-11 22:29N 33°21' W 118°19'0 0.8
2018-Jun-11 22:00N 33°21' W 118°19'0 0.5
2018-Jun-11 21:30N 33°21' W 118°19'0 0.0
2018-Jun-11 17:30N 33°21' W 118°19'10 2.7
2018-Jun-11 13:41N 33°31' W 118°16'214.1
2018-Jun-11 13:31N 33°33' W 118°15'714.4
2018-Jun-11 13:00N 33°40' W 118°12'511.2
2018-Jun-11 12:30N 33°45' W 118°12'0 0.0
2018-Jun-10 01:08N 33°46' W 118°12'0 1.6
2018-Jun-10 01:00N 33°46' W 118°12'1 1.7
2018-Jun-10 00:30N 33°45' W 118°11'612.0
2018-Jun-10 00:00N 33°39' W 118°12'712.8
2018-Jun-09 23:27N 33°33' W 118°16'1 0.3
2018-Jun-09 21:42N 33°32' W 118°16'316.1
2018-Jun-09 21:30N 33°35' W 118°15'915.5
2018-Jun-09 20:56N 33°44' W 118°11'2 3.7
2018-Jun-09 20:30N 33°45' W 118°12'0 0.0
2018-Jun-09 20:00N 33°45' W 118°12'0 0.4
2018-Jun-09 19:30N 33°45' W 118°11'  
Track history (hours):
 
Tides and Currents Weather Stations Pressure Air Temp Water Temp Dewpoint Dewpoint Depression Visibility Wind Speed Wind Dir Waves Ship Positions

Two Harbors

Owner: Catalina Classic Cruises, San Diego, CA. More information available from US FCC via Universal Licensing System and Coast Guard Vessel Documentation Center.

Last reported at 2018-Jun-18 13:34 UTC. Time now 2018-Jun-19 16:25 UTC.
Position N 33°32' W 118°15'.

Length 24 m; draft 2.1 m.

Type: Ship. MMSI: 367652650.

Date/timePositionNaut miles runAvg speedWind from/ knotsBaromVisibWave heightAir tempDewpointWater temp
2018-Jun-18 13:34N 33°32' W 118°15'113.3
2018-Jun-18 13:30N 33°33' W 118°15'713.4
2018-Jun-18 13:00N 33°39' W 118°13'612.3
2018-Jun-18 12:29N 33°45' W 118°11'  
2018-Jun-13 18:22N 33°46' W 118°12'1 1.5
2018-Jun-13 18:00N 33°45' W 118°12'0 0.0
2018-Jun-13 17:30N 33°45' W 118°12'1 1.0
2018-Jun-13 17:00N 33°46' W 118°12'0 0.0
2018-Jun-13 01:33N 33°46' W 118°12'0 1.2
2018-Jun-13 01:31N 33°46' W 118°12'510.4
2018-Jun-13 01:00N 33°40' W 118°11'2112.3
2018-Jun-12 23:19N 33°21' W 118°19'0 0.8
2018-Jun-12 23:00N 33°21' W 118°19'0 0.2
2018-Jun-12 22:16N 33°21' W 118°19'0 1.1
2018-Jun-12 21:58N 33°21' W 118°19'0 0.7
2018-Jun-12 21:27N 33°21' W 118°19'0 0.7
2018-Jun-12 21:00N 33°21' W 118°19'0 0.0
2018-Jun-12 13:03N 33°21' W 118°19'0 0.0
2018-Jun-12 13:00N 33°21' W 118°19'0 0.0
2018-Jun-12 11:35N 33°21' W 118°19'0 0.0
2018-Jun-12 11:30N 33°21' W 118°19'0 0.0
2018-Jun-12 11:00N 33°21' W 118°19'0 0.0
2018-Jun-12 10:14N 33°21' W 118°19'0 0.0
2018-Jun-12 09:51N 33°21' W 118°19'0 0.0
2018-Jun-12 09:29N 33°21' W 118°19'0 0.0
2018-Jun-12 08:57N 33°21' W 118°19'0 0.0
2018-Jun-12 08:18N 33°21' W 118°19'0 0.0
2018-Jun-12 06:39N 33°21' W 118°19'0 0.0
2018-Jun-12 06:28N 33°21' W 118°19'0 0.0
2018-Jun-12 05:59N 33°21' W 118°19'0 0.0
2018-Jun-12 05:29N 33°21' W 118°19'0 0.0
2018-Jun-12 05:00N 33°21' W 118°19'0 0.0
2018-Jun-12 04:31N 33°21' W 118°19'0 0.0
2018-Jun-12 04:00N 33°21' W 118°19'0 0.0
2018-Jun-12 03:30N 33°21' W 118°19'0 0.0
2018-Jun-12 02:59N 33°21' W 118°19'0 0.0
2018-Jun-12 02:30N 33°21' W 118°19'0 0.0
2018-Jun-12 02:00N 33°21' W 118°19'0 0.0
2018-Jun-12 01:30N 33°21' W 118°19'0 0.0
2018-Jun-12 01:00N 33°21' W 118°19'0 0.0
2018-Jun-12 00:30N 33°21' W 118°19'0 0.0
2018-Jun-11 23:59N 33°21' W 118°19'0 0.0
2018-Jun-11 23:31N 33°21' W 118°19'0 0.6
2018-Jun-11 22:54N 33°21' W 118°19'0 1.0
2018-Jun-11 22:29N 33°21' W 118°19'0 0.8
2018-Jun-11 22:00N 33°21' W 118°19'0 0.5
2018-Jun-11 21:30N 33°21' W 118°19'0 0.0
2018-Jun-11 17:30N 33°21' W 118°19'10 2.7
2018-Jun-11 13:41N 33°31' W 118°16'214.1
2018-Jun-11 13:31N 33°33' W 118°15'714.4
2018-Jun-11 13:00N 33°40' W 118°12'511.2
2018-Jun-11 12:30N 33°45' W 118°12'0 0.0
2018-Jun-10 01:08N 33°46' W 118°12'0 1.6
2018-Jun-10 01:00N 33°46' W 118°12'1 1.7
2018-Jun-10 00:30N 33°45' W 118°11'612.0
2018-Jun-10 00:00N 33°39' W 118°12'712.8
2018-Jun-09 23:27N 33°33' W 118°16'1 0.3
2018-Jun-09 21:42N 33°32' W 118°16'316.1
2018-Jun-09 21:30N 33°35' W 118°15'915.5
2018-Jun-09 20:56N 33°44' W 118°11'2 3.7
2018-Jun-09 20:30N 33°45' W 118°12'0 0.0
2018-Jun-09 20:00N 33°45' W 118°12'0 0.4
2018-Jun-09 19:30N 33°45' W 118°11'  

Dump ship's entire track history